Sovereign — 9HUE9 — position and weather

sailwx.info

Track history (hours):
 
Tides and Currents Weather Stations Pressure Air Temp Water Temp Dewpoint Dewpoint Depression Visibility Wind Speed Wind Dir Waves Ship Positions

Sovereign

Last reported at 2017-Sep-25 18:45 UTC. Time now 2017-Sep-26 04:00 UTC.
Position N 40°38' E 014°01'.

Length 269 m; draft 7.8 m.

Type: Passenger vessel. MMSI: 249539000.

Date/timePositionNaut miles runAvg speedWind from/ knotsBaromVisibWave heightAir tempDewpointWater temp
2017-Sep-25 18:45N 40°38' E 014°01'414.9
2017-Sep-25 18:31N 40°40' E 014°05'713.2
2017-Sep-25 18:00N 40°45' E 014°12'612.4
2017-Sep-25 17:29N 40°50' E 014°17'1 0.8
2017-Sep-25 16:20N 40°50' E 014°15'0 0.0
2017-Sep-25 15:50N 40°50' E 014°15'0 0.0
2017-Sep-25 15:14N 40°50' E 014°15'0 0.0
2017-Sep-25 12:38N 40°50' E 014°15'0 0.0
2017-Sep-25 12:23N 40°50' E 014°15'0 0.0
2017-Sep-25 11:53N 40°50' E 014°15'0 0.0
2017-Sep-25 11:23N 40°50' E 014°15'0 0.0
2017-Sep-25 10:50N 40°50' E 014°15'0 0.0
2017-Sep-25 09:20N 40°50' E 014°15'0 0.0
2017-Sep-25 07:26N 40°50' E 014°15'0 0.0
2017-Sep-25 06:56N 40°50' E 014°15'0 0.0
2017-Sep-25 06:29N 40°50' E 014°15'2 3.2
2017-Sep-25 05:56N 40°49' E 014°17'31613.6
2017-Sep-24 06:36N 41°20' E 007°19'216.8
2017-Sep-24 06:30N 41°20' E 007°17'1017.0
2017-Sep-24 05:56N 41°20' E 007°04'716.7
2017-Sep-24 05:30N 41°20' E 006°55'916.9
2017-Sep-24 04:57N 41°20' E 006°42'817.2
2017-Sep-24 04:30N 41°20' E 006°32'916.9
2017-Sep-24 04:00N 41°20' E 006°21'11416.5
2017-Sep-23 21:05N 41°17' E 003°49'116.6
2017-Sep-23 21:00N 41°17' E 003°47'816.6
2017-Sep-23 20:30N 41°17' E 003°36'184 3.7
2017-Sep-21 19:06N 43°04' E 006°58'1 8.8
2017-Sep-21 19:00N 43°05' E 006°58'4 8.9
2017-Sep-21 18:30N 43°09' E 007°00'5 8.6
2017-Sep-21 17:58N 43°14' E 007°00'4 8.8
2017-Sep-21 17:30N 43°18' E 007°00'4 8.6
2017-Sep-21 17:00N 43°22' E 007°00'4 8.8
2017-Sep-21 16:30N 43°27' E 007°00'4 8.0
2017-Sep-21 16:00N 43°31' E 007°00'2 3.0
2017-Sep-21 15:28N 43°32' E 007°01'0 0.1
2017-Sep-21 14:58N 43°32' E 007°01'0 0.0
2017-Sep-21 14:28N 43°32' E 007°01'0 0.0
2017-Sep-21 13:58N 43°32' E 007°01'0 0.0
2017-Sep-21 13:28N 43°32' E 007°01'0 0.0
2017-Sep-21 12:58N 43°32' E 007°01'0 0.0
2017-Sep-21 12:28N 43°32' E 007°01'0 0.0
2017-Sep-21 11:58N 43°32' E 007°01'0 0.0
2017-Sep-21 11:28N 43°32' E 007°01'0 0.1
2017-Sep-21 10:58N 43°32' E 007°01'0 0.0
2017-Sep-21 10:28N 43°32' E 007°01'0 0.1
2017-Sep-21 09:49N 43°32' E 007°01'0 0.0
2017-Sep-21 09:28N 43°32' E 007°01'0 0.0
2017-Sep-21 08:58N 43°32' E 007°01'0 0.0
2017-Sep-21 08:28N 43°32' E 007°01'0 0.0
2017-Sep-21 07:58N 43°32' E 007°01'0 0.1
2017-Sep-21 07:28N 43°32' E 007°01'0 0.0
2017-Sep-21 06:58N 43°32' E 007°01'0 0.0
2017-Sep-21 06:28N 43°32' E 007°01'0 0.0
2017-Sep-21 05:55N 43°32' E 007°01'0 0.0
2017-Sep-21 05:30N 43°32' E 007°01'1 2.7
2017-Sep-21 05:00N 43°31' E 007°00'4 7.6
2017-Sep-21 04:30N 43°29' E 007°04'611.8
2017-Sep-21 04:00N 43°29' E 007°13'711.6
2017-Sep-21 03:27N 43°29' E 007°22'512.1
2017-Sep-21 03:00N 43°29' E 007°29'612.2
2017-Sep-21 02:30N 43°30' E 007°37'612.0
2017-Sep-21 02:00N 43°30' E 007°46'611.9
2017-Sep-21 01:30N 43°30' E 007°54'611.8
2017-Sep-21 00:59N 43°29' E 008°02'612.7
2017-Sep-21 00:30N 43°29' E 008°11'814.0
2017-Sep-20 23:57N 43°30' E 008°21'614.4
2017-Sep-20 23:30N 43°31' E 008°30'714.5
2017-Sep-20 23:00N 43°31' E 008°40'814.7
2017-Sep-20 22:26N 43°31' E 008°51'614.5
2017-Sep-20 22:00N 43°31' E 009°00'714.4
2017-Sep-20 21:30N 43°31' E 009°10'714.6
2017-Sep-20 21:00N 43°32' E 009°20'714.4
2017-Sep-20 20:30N 43°32' E 009°30'815.6
2017-Sep-20 20:00N 43°32' E 009°41'816.4
2017-Sep-20 19:30N 43°32' E 009°52'816.2
2017-Sep-20 19:00N 43°31' E 010°03'815.6
2017-Sep-20 18:30N 43°32' E 010°14'3 6.4
2017-Sep-20 17:58N 43°33' E 010°18'0 0.0
2017-Sep-20 17:28N 43°33' E 010°18'0 0.0
2017-Sep-20 16:58N 43°33' E 010°18'0 0.0
2017-Sep-20 16:25N 43°33' E 010°18'0 0.0
2017-Sep-20 15:58N 43°33' E 010°18'0 0.0
2017-Sep-20 15:28N 43°33' E 010°18'0 0.0
2017-Sep-20 14:52N 43°33' E 010°18'0 0.0
2017-Sep-20 13:55N 43°33' E 010°18'0 0.0
2017-Sep-20 13:28N 43°33' E 010°18'0 0.0
2017-Sep-20 12:58N 43°33' E 010°18'0 0.0
2017-Sep-20 12:28N 43°33' E 010°18'0 0.0
2017-Sep-20 11:52N 43°33' E 010°18'0 0.0
2017-Sep-20 11:28N 43°33' E 010°18'0 0.0
2017-Sep-20 10:58N 43°33' E 010°18'0 0.0
2017-Sep-20 10:28N 43°33' E 010°18'0 0.0
2017-Sep-20 09:58N 43°33' E 010°18'0 0.0
2017-Sep-20 09:28N 43°33' E 010°18'0 0.0
2017-Sep-20 08:58N 43°33' E 010°18'0 0.0
2017-Sep-20 08:28N 43°33' E 010°18'0 0.0
2017-Sep-20 07:58N 43°33' E 010°18'0 0.0
2017-Sep-20 07:22N 43°33' E 010°18'0 0.0
2017-Sep-20 06:55N 43°33' E 010°18'0 0.0
2017-Sep-20 06:25N 43°33' E 010°18'0 0.0
2017-Sep-20 05:58N 43°33' E 010°18'0 0.5
2017-Sep-20 05:30N 43°33' E 010°18'3 4.6
2017-Sep-20 04:58N 43°31' E 010°15'511.3
2017-Sep-20 04:30N 43°27' E 010°13'815.8
2017-Sep-20 04:00N 43°19' E 010°11'815.7
2017-Sep-20 03:30N 43°11' E 010°08'714.9
2017-Sep-20 03:01N 43°04' E 010°06'611.4
2017-Sep-20 02:30N 42°58' E 010°05'510.8
2017-Sep-20 02:00N 42°53' E 010°03'1510.4
2017-Sep-20 00:32N 42°38' E 010°09'011.1
2017-Sep-20 00:30N 42°38' E 010°09'711.5
2017-Sep-19 23:55N 42°33' E 010°15'205 7.0
2017-Sep-18 18:29N 40°38' E 014°02'816.3
2017-Sep-18 18:00N 40°43' E 014°10'815.3
2017-Sep-18 17:30N 40°49' E 014°17'2 0.4
2017-Sep-18 12:39N 40°50' E 014°15'0 0.0
2017-Sep-18 12:21N 40°50' E 014°15'0 0.0
2017-Sep-18 11:57N 40°50' E 014°15'0 0.0
2017-Sep-18 11:27N 40°50' E 014°15'0 0.0
2017-Sep-18 11:00N 40°50' E 014°15'0 0.0
2017-Sep-18 10:27N 40°50' E 014°15'0 0.0
2017-Sep-18 09:45N 40°50' E 014°15'0 0.0
2017-Sep-18 09:27N 40°50' E 014°15'0 0.0
2017-Sep-18 07:30N 40°50' E 014°15'0 0.0
2017-Sep-18 06:30N 40°50' E 014°15'2 2.9
2017-Sep-18 05:50N 40°49' E 014°17'411.2
2017-Sep-18 05:30N 40°46' E 014°14'52214.8
2017-Sep-16 18:12N 41°17' E 002°43'417.1
2017-Sep-16 17:58N 41°17' E 002°38'1517.1
2017-Sep-16 17:06N 41°16' E 002°18'217.0
2017-Sep-16 16:59N 41°16' E 002°15'5 0.4
2017-Sep-16 06:01N 41°19' E 002°10'0 8.0
2017-Sep-16 06:00N 41°19' E 002°10'12713.4
2017-Sep-15 20:32N 42°20' E 004°39'216.5
2017-Sep-15 20:24N 42°21' E 004°42'1516.4
2017-Sep-15 19:30N 42°30' E 004°58'1116.2
2017-Sep-15 18:49N 42°36' E 005°10'  
Track history (hours):
 
Tides and Currents Weather Stations Pressure Air Temp Water Temp Dewpoint Dewpoint Depression Visibility Wind Speed Wind Dir Waves Ship Positions

Sovereign

Last reported at 2017-Sep-25 18:45 UTC. Time now 2017-Sep-26 04:00 UTC.
Position N 40°38' E 014°01'.

Length 269 m; draft 7.8 m.

Type: Passenger vessel. MMSI: 249539000.

Date/timePositionNaut miles runAvg speedWind from/ knotsBaromVisibWave heightAir tempDewpointWater temp
2017-Sep-25 18:45N 40°38' E 014°01'414.9
2017-Sep-25 18:31N 40°40' E 014°05'713.2
2017-Sep-25 18:00N 40°45' E 014°12'612.4
2017-Sep-25 17:29N 40°50' E 014°17'1 0.8
2017-Sep-25 16:20N 40°50' E 014°15'0 0.0
2017-Sep-25 15:50N 40°50' E 014°15'0 0.0
2017-Sep-25 15:14N 40°50' E 014°15'0 0.0
2017-Sep-25 12:38N 40°50' E 014°15'0 0.0
2017-Sep-25 12:23N 40°50' E 014°15'0 0.0
2017-Sep-25 11:53N 40°50' E 014°15'0 0.0
2017-Sep-25 11:23N 40°50' E 014°15'0 0.0
2017-Sep-25 10:50N 40°50' E 014°15'0 0.0
2017-Sep-25 09:20N 40°50' E 014°15'0 0.0
2017-Sep-25 07:26N 40°50' E 014°15'0 0.0
2017-Sep-25 06:56N 40°50' E 014°15'0 0.0
2017-Sep-25 06:29N 40°50' E 014°15'2 3.2
2017-Sep-25 05:56N 40°49' E 014°17'31613.6
2017-Sep-24 06:36N 41°20' E 007°19'216.8
2017-Sep-24 06:30N 41°20' E 007°17'1017.0
2017-Sep-24 05:56N 41°20' E 007°04'716.7
2017-Sep-24 05:30N 41°20' E 006°55'916.9
2017-Sep-24 04:57N 41°20' E 006°42'817.2
2017-Sep-24 04:30N 41°20' E 006°32'916.9
2017-Sep-24 04:00N 41°20' E 006°21'11416.5
2017-Sep-23 21:05N 41°17' E 003°49'116.6
2017-Sep-23 21:00N 41°17' E 003°47'816.6
2017-Sep-23 20:30N 41°17' E 003°36'184 3.7
2017-Sep-21 19:06N 43°04' E 006°58'1 8.8
2017-Sep-21 19:00N 43°05' E 006°58'4 8.9
2017-Sep-21 18:30N 43°09' E 007°00'5 8.6
2017-Sep-21 17:58N 43°14' E 007°00'4 8.8
2017-Sep-21 17:30N 43°18' E 007°00'4 8.6
2017-Sep-21 17:00N 43°22' E 007°00'4 8.8
2017-Sep-21 16:30N 43°27' E 007°00'4 8.0
2017-Sep-21 16:00N 43°31' E 007°00'2 3.0
2017-Sep-21 15:28N 43°32' E 007°01'0 0.1
2017-Sep-21 14:58N 43°32' E 007°01'0 0.0
2017-Sep-21 14:28N 43°32' E 007°01'0 0.0
2017-Sep-21 13:58N 43°32' E 007°01'0 0.0
2017-Sep-21 13:28N 43°32' E 007°01'0 0.0
2017-Sep-21 12:58N 43°32' E 007°01'0 0.0
2017-Sep-21 12:28N 43°32' E 007°01'0 0.0
2017-Sep-21 11:58N 43°32' E 007°01'0 0.0
2017-Sep-21 11:28N 43°32' E 007°01'0 0.1
2017-Sep-21 10:58N 43°32' E 007°01'0 0.0
2017-Sep-21 10:28N 43°32' E 007°01'0 0.1
2017-Sep-21 09:49N 43°32' E 007°01'0 0.0
2017-Sep-21 09:28N 43°32' E 007°01'0 0.0
2017-Sep-21 08:58N 43°32' E 007°01'0 0.0
2017-Sep-21 08:28N 43°32' E 007°01'0 0.0
2017-Sep-21 07:58N 43°32' E 007°01'0 0.1
2017-Sep-21 07:28N 43°32' E 007°01'0 0.0
2017-Sep-21 06:58N 43°32' E 007°01'0 0.0
2017-Sep-21 06:28N 43°32' E 007°01'0 0.0
2017-Sep-21 05:55N 43°32' E 007°01'0 0.0
2017-Sep-21 05:30N 43°32' E 007°01'1 2.7
2017-Sep-21 05:00N 43°31' E 007°00'4 7.6
2017-Sep-21 04:30N 43°29' E 007°04'611.8
2017-Sep-21 04:00N 43°29' E 007°13'711.6
2017-Sep-21 03:27N 43°29' E 007°22'512.1
2017-Sep-21 03:00N 43°29' E 007°29'612.2
2017-Sep-21 02:30N 43°30' E 007°37'612.0
2017-Sep-21 02:00N 43°30' E 007°46'611.9
2017-Sep-21 01:30N 43°30' E 007°54'611.8
2017-Sep-21 00:59N 43°29' E 008°02'612.7
2017-Sep-21 00:30N 43°29' E 008°11'814.0
2017-Sep-20 23:57N 43°30' E 008°21'614.4
2017-Sep-20 23:30N 43°31' E 008°30'714.5
2017-Sep-20 23:00N 43°31' E 008°40'814.7
2017-Sep-20 22:26N 43°31' E 008°51'614.5
2017-Sep-20 22:00N 43°31' E 009°00'714.4
2017-Sep-20 21:30N 43°31' E 009°10'714.6
2017-Sep-20 21:00N 43°32' E 009°20'714.4
2017-Sep-20 20:30N 43°32' E 009°30'815.6
2017-Sep-20 20:00N 43°32' E 009°41'816.4
2017-Sep-20 19:30N 43°32' E 009°52'816.2
2017-Sep-20 19:00N 43°31' E 010°03'815.6
2017-Sep-20 18:30N 43°32' E 010°14'3 6.4
2017-Sep-20 17:58N 43°33' E 010°18'0 0.0
2017-Sep-20 17:28N 43°33' E 010°18'0 0.0
2017-Sep-20 16:58N 43°33' E 010°18'0 0.0
2017-Sep-20 16:25N 43°33' E 010°18'0 0.0
2017-Sep-20 15:58N 43°33' E 010°18'0 0.0
2017-Sep-20 15:28N 43°33' E 010°18'0 0.0
2017-Sep-20 14:52N 43°33' E 010°18'0 0.0
2017-Sep-20 13:55N 43°33' E 010°18'0 0.0
2017-Sep-20 13:28N 43°33' E 010°18'0 0.0
2017-Sep-20 12:58N 43°33' E 010°18'0 0.0
2017-Sep-20 12:28N 43°33' E 010°18'0 0.0
2017-Sep-20 11:52N 43°33' E 010°18'0 0.0
2017-Sep-20 11:28N 43°33' E 010°18'0 0.0
2017-Sep-20 10:58N 43°33' E 010°18'0 0.0
2017-Sep-20 10:28N 43°33' E 010°18'0 0.0
2017-Sep-20 09:58N 43°33' E 010°18'0 0.0
2017-Sep-20 09:28N 43°33' E 010°18'0 0.0
2017-Sep-20 08:58N 43°33' E 010°18'0 0.0
2017-Sep-20 08:28N 43°33' E 010°18'0 0.0
2017-Sep-20 07:58N 43°33' E 010°18'0 0.0
2017-Sep-20 07:22N 43°33' E 010°18'0 0.0
2017-Sep-20 06:55N 43°33' E 010°18'0 0.0
2017-Sep-20 06:25N 43°33' E 010°18'0 0.0
2017-Sep-20 05:58N 43°33' E 010°18'0 0.5
2017-Sep-20 05:30N 43°33' E 010°18'3 4.6
2017-Sep-20 04:58N 43°31' E 010°15'511.3
2017-Sep-20 04:30N 43°27' E 010°13'815.8
2017-Sep-20 04:00N 43°19' E 010°11'815.7
2017-Sep-20 03:30N 43°11' E 010°08'714.9
2017-Sep-20 03:01N 43°04' E 010°06'611.4
2017-Sep-20 02:30N 42°58' E 010°05'510.8
2017-Sep-20 02:00N 42°53' E 010°03'1510.4
2017-Sep-20 00:32N 42°38' E 010°09'011.1
2017-Sep-20 00:30N 42°38' E 010°09'711.5
2017-Sep-19 23:55N 42°33' E 010°15'205 7.0
2017-Sep-18 18:29N 40°38' E 014°02'816.3
2017-Sep-18 18:00N 40°43' E 014°10'815.3
2017-Sep-18 17:30N 40°49' E 014°17'2 0.4
2017-Sep-18 12:39N 40°50' E 014°15'0 0.0
2017-Sep-18 12:21N 40°50' E 014°15'0 0.0
2017-Sep-18 11:57N 40°50' E 014°15'0 0.0
2017-Sep-18 11:27N 40°50' E 014°15'0 0.0
2017-Sep-18 11:00N 40°50' E 014°15'0 0.0
2017-Sep-18 10:27N 40°50' E 014°15'0 0.0
2017-Sep-18 09:45N 40°50' E 014°15'0 0.0
2017-Sep-18 09:27N 40°50' E 014°15'0 0.0
2017-Sep-18 07:30N 40°50' E 014°15'0 0.0
2017-Sep-18 06:30N 40°50' E 014°15'2 2.9
2017-Sep-18 05:50N 40°49' E 014°17'411.2
2017-Sep-18 05:30N 40°46' E 014°14'52214.8
2017-Sep-16 18:12N 41°17' E 002°43'417.1
2017-Sep-16 17:58N 41°17' E 002°38'1517.1
2017-Sep-16 17:06N 41°16' E 002°18'217.0
2017-Sep-16 16:59N 41°16' E 002°15'5 0.4
2017-Sep-16 06:01N 41°19' E 002°10'0 8.0
2017-Sep-16 06:00N 41°19' E 002°10'12713.4
2017-Sep-15 20:32N 42°20' E 004°39'216.5
2017-Sep-15 20:24N 42°21' E 004°42'1516.4
2017-Sep-15 19:30N 42°30' E 004°58'1116.2
2017-Sep-15 18:49N 42°36' E 005°10'  

Dump ship's entire track history